This is the latest recevied weather packets stored in our database for station/object SQ9IDT-13. If no packets are shown the sender has not sent any weather packets the latest 10 day(s).
| Time | Temp. | Humidity | Pressure | Rain* | Wind** | Luminosity | Snow |
|---|---|---|---|---|---|---|---|
| 1777662421 | 12.22° C | 39% | 991.9 hPa | - | - | - | - |
| 1777658821 | 16.11° C | 36% | 991.3 hPa | - | - | - | - |
| 1777655218 | 19.44° C | 33% | 990.9 hPa | - | - | - | - |
| 1777651616 | 21.67° C | 32% | 990.8 hPa | - | - | - | - |
| 1777648110 | 21.11° C | 33% | 991.1 hPa | - | - | - | - |
| 1777648025 | 21.11° C | 33% | 991.1 hPa | - | - | - | - |
| 1777644422 | 22.22° C | 32% | 991.2 hPa | - | - | - | - |
| 1777640821 | 23.89° C | 31% | 991.7 hPa | - | - | - | - |
| 1777637221 | 22.78° C | 32% | 992.3 hPa | - | - | - | - |
| 1777633619 | 24.44° C | 32% | 992.5 hPa | - | - | - | - |
| 1777630015 | 21.67° C | 37% | 992.8 hPa | - | - | - | - |
| 1777604821 | 7.78° C | 41% | 994.2 hPa | - | - | - | - |
| 1777601219 | 8.33° C | 40% | 994.1 hPa | - | - | - | - |
| 1777597618 | 7.78° C | 40% | 994.3 hPa | - | - | - | - |
| 1777594018 | 7.78° C | 38% | 994.6 hPa | - | - | - | - |
| 1777590415 | 8.33° C | 37% | 994.8 hPa | - | - | - | - |
| 1777586815 | 7.78° C | 37% | 994.7 hPa | - | - | - | - |
| 1777583220 | 7.22° C | 36% | 995 hPa | - | - | - | - |
| 1777579618 | 7.22° C | 35% | 995 hPa | - | - | - | - |
| 1777576017 | 9.44° C | 33% | 994.8 hPa | - | - | - | - |
| 1777568814 | 12.78° C | 29% | 994.4 hPa | - | - | - | - |
| 1777565212 | 15° C | 27% | 994.1 hPa | - | - | - | - |
| 1777561619 | 15.56° C | 27% | 994.2 hPa | - | - | - | - |
| 1777558019 | 17.22° C | 27% | 994.4 hPa | - | - | - | - |
| 1777554416 | 18.33° C | 26% | 994.9 hPa | - | - | - | - |
* Rain since midnight (hover to see other rain measurements)
** Current wind speed in m/s (hover to see current wind gust speed)